createdAt,value
2023-04-05T00:02:18.907Z,90.33
2023-04-05T00:04:52.469Z,90.40
2023-04-05T00:07:21.637Z,90.48
2023-04-05T00:09:49.570Z,90.66
2023-04-05T00:12:16.454Z,90.64
2023-04-05T00:14:43.209Z,90.83
2023-04-05T00:17:11.195Z,90.99
2023-04-05T00:19:39.395Z,90.92
2023-04-05T00:22:06.159Z,90.97
2023-04-05T00:24:34.062Z,91.19
2023-04-05T00:27:01.431Z,90.94
2023-04-05T00:29:28.527Z,91.24
2023-04-05T00:31:56.604Z,91.15
2023-04-05T00:34:23.424Z,91.34
2023-04-05T00:36:50.560Z,91.38
2023-04-05T00:39:17.322Z,91.42
2023-04-05T00:41:46.298Z,91.47
2023-04-05T00:44:13.877Z,91.71
2023-04-05T00:46:41.079Z,91.63
2023-04-05T00:49:07.978Z,91.88
2023-04-05T00:51:35.123Z,91.85
2023-04-05T00:54:03.079Z,91.93
2023-04-05T00:56:31.602Z,92.05
2023-04-05T00:58:58.579Z,92.22
2023-04-05T01:01:28.163Z,92.07
2023-04-05T01:04:03.080Z,92.14
2023-04-05T01:06:51.956Z,92.15
2023-04-05T01:09:36.964Z,92.27
2023-04-05T01:12:07.423Z,92.16
2023-04-05T01:14:47.358Z,92.54
2023-04-05T01:17:14.053Z,92.55
2023-04-05T01:19:42.177Z,92.40
2023-04-05T01:22:40.499Z,92.49
2023-04-05T01:25:19.530Z,92.52
2023-04-05T01:27:58.160Z,92.46
2023-04-05T01:30:32.448Z,92.57
2023-04-05T01:33:17.282Z,92.58
2023-04-05T01:35:52.211Z,92.60
2023-04-05T01:38:27.882Z,92.69
2023-04-05T01:40:55.043Z,92.62
2023-04-05T01:43:21.730Z,92.68
2023-04-05T01:45:48.757Z,92.92
2023-04-05T01:48:16.115Z,92.91
2023-04-05T01:50:43.405Z,92.85
2023-04-05T01:53:10.358Z,93.10
2023-04-05T01:55:37.149Z,93.14
2023-04-05T01:58:04.012Z,93.13
2023-04-05T02:00:30.980Z,93.22
2023-04-05T02:02:57.873Z,93.18
2023-04-05T02:05:24.639Z,93.37
2023-04-05T02:07:51.367Z,93.46
2023-04-05T02:10:18.869Z,93.54
2023-04-05T02:12:45.593Z,93.40
2023-04-05T02:15:12.440Z,93.54
2023-04-05T02:17:40.035Z,93.60
2023-04-05T02:20:08.944Z,93.71
2023-04-05T02:22:36.968Z,93.74
2023-04-05T02:25:04.339Z,93.93
2023-04-05T02:27:32.648Z,93.89
2023-04-05T02:29:59.279Z,94.03
2023-04-05T02:32:26.321Z,93.98
2023-04-05T02:34:53.024Z,94.05
2023-04-05T02:37:20.786Z,94.16
2023-04-05T02:39:47.457Z,94.14
2023-04-05T02:42:14.166Z,94.35
2023-04-05T02:44:41.129Z,94.35
2023-04-05T02:47:07.786Z,94.41
2023-04-05T02:49:34.426Z,94.40
2023-04-05T02:52:01.260Z,94.58
2023-04-05T02:54:27.899Z,94.92
2023-04-05T02:56:57.826Z,94.71
2023-04-05T02:59:25.030Z,94.68
2023-04-05T03:01:51.822Z,94.73
2023-04-05T03:04:18.621Z,94.86
2023-04-05T03:06:48.831Z,94.70
2023-04-05T03:09:15.667Z,94.85
2023-04-05T03:11:42.359Z,94.91
2023-04-05T03:14:09.073Z,94.83
2023-04-05T03:16:36.881Z,95.05
2023-04-05T03:19:05.555Z,95.22
2023-04-05T03:21:33.951Z,95.23
2023-04-05T03:24:00.956Z,95.41
2023-04-05T03:26:27.734Z,95.36
2023-04-05T03:28:54.439Z,95.42
2023-04-05T03:31:21.588Z,95.34
2023-04-05T03:33:48.224Z,95.58
2023-04-05T03:36:16.855Z,95.79
2023-04-05T03:38:46.087Z,95.76
2023-04-05T03:41:12.878Z,95.86
2023-04-05T03:43:39.502Z,95.96
2023-04-05T03:46:06.486Z,96.02
2023-04-05T03:48:33.286Z,95.96
2023-04-05T03:50:59.977Z,96.03
2023-04-05T03:53:29.490Z,96.14
2023-04-05T03:55:56.800Z,96.28
2023-04-05T03:58:23.495Z,96.37
2023-04-05T04:00:50.592Z,96.40
2023-04-05T04:03:17.271Z,96.49
2023-04-05T04:05:44.358Z,96.65
2023-04-05T04:08:11.458Z,96.83
2023-04-05T04:10:38.092Z,96.87
2023-04-05T04:13:06.740Z,96.83
2023-04-05T04:15:33.365Z,96.97
2023-04-05T04:18:00.024Z,97.24
2023-04-05T04:20:26.839Z,97.18
2023-04-05T04:22:54.096Z,97.29
2023-04-05T04:25:21.767Z,97.40
2023-04-05T04:27:50.310Z,97.50
2023-04-05T04:30:17.044Z,97.76
2023-04-05T04:32:56.388Z,97.81
2023-04-05T04:35:25.586Z,97.76
2023-04-05T04:38:00.169Z,98.06
2023-04-05T04:40:40.289Z,98.10
2023-04-05T04:43:14.569Z,98.24
2023-04-05T04:45:41.807Z,98.25
2023-04-05T04:48:08.844Z,98.34
2023-04-05T04:50:36.038Z,98.47
2023-04-05T04:53:02.710Z,98.50
2023-04-05T04:55:29.415Z,98.84
2023-04-05T04:57:56.537Z,98.80
2023-04-05T05:00:24.329Z,98.90
2023-04-05T05:02:52.677Z,99.02
2023-04-05T05:05:23.296Z,99.25
2023-04-05T05:07:50.828Z,99.18
2023-04-05T05:10:18.919Z,99.33
2023-04-05T05:12:45.827Z,99.24
2023-04-05T05:15:12.894Z,99.49
2023-04-05T05:17:39.772Z,99.69
2023-04-05T05:20:11.244Z,99.63
2023-04-05T05:22:39.408Z,99.87
2023-04-05T05:25:07.180Z,100.00
2023-04-05T05:27:34.065Z,99.94
2023-04-05T05:30:01.323Z,100.00
2023-04-05T05:32:29.062Z,100.00
2023-04-05T05:34:55.799Z,100.00
2023-04-05T05:37:30.100Z,100.00
2023-04-05T05:39:57.209Z,100.00
2023-04-05T05:42:24.049Z,100.00
2023-04-05T05:44:51.723Z,100.00
2023-04-05T05:47:18.960Z,100.00
2023-04-05T05:49:45.643Z,100.00
2023-04-05T05:52:12.409Z,100.00
2023-04-05T05:54:39.056Z,100.00
2023-04-05T05:57:05.777Z,100.00
2023-04-05T05:59:32.511Z,100.00
2023-04-05T06:01:59.223Z,100.00
2023-04-05T06:04:26.417Z,100.00
2023-04-05T06:06:54.675Z,100.00
2023-04-05T06:09:23.300Z,100.00
2023-04-05T06:11:56.939Z,100.00
2023-04-05T06:14:24.583Z,100.00
2023-04-05T06:16:51.294Z,100.00
2023-04-05T06:19:17.932Z,100.00
2023-04-05T06:21:44.629Z,100.00
2023-04-05T06:24:11.310Z,100.00
2023-04-05T06:26:40.105Z,100.00
2023-04-05T06:29:07.165Z,100.00
2023-04-05T06:31:36.296Z,100.00
2023-04-05T06:34:03.071Z,100.00
2023-04-05T06:36:34.162Z,100.00
2023-04-05T06:39:01.387Z,100.00
2023-04-05T06:41:28.245Z,100.00
2023-04-05T06:43:56.461Z,100.00
2023-04-05T06:46:23.801Z,100.00
2023-04-05T06:48:52.025Z,100.00
2023-04-05T06:51:19.155Z,100.00
2023-04-05T06:53:46.465Z,100.00
2023-04-05T06:56:13.279Z,100.00
2023-04-05T06:58:40.079Z,100.00
2023-04-05T07:01:07.618Z,100.00
2023-04-05T07:03:34.432Z,100.00
2023-04-05T07:06:01.640Z,100.00
2023-04-05T07:08:29.537Z,100.00
2023-04-05T07:10:56.408Z,100.00
2023-04-05T07:13:24.670Z,100.00
2023-04-05T07:15:52.599Z,100.00
2023-04-05T07:18:19.758Z,100.00
2023-04-05T07:20:48.271Z,100.00
2023-04-05T07:23:15.096Z,100.00
2023-04-05T07:25:41.928Z,100.00
2023-04-05T07:28:08.610Z,100.00
2023-04-05T07:30:36.492Z,100.00
2023-04-05T07:33:03.384Z,100.00
2023-04-05T07:35:30.391Z,100.00
2023-04-05T07:37:57.151Z,100.00
2023-04-05T07:40:23.936Z,100.00
2023-04-05T07:42:50.777Z,100.00
2023-04-05T07:45:17.484Z,100.00
2023-04-05T07:47:44.189Z,100.00
2023-04-05T07:50:15.141Z,100.00
2023-04-05T07:52:42.851Z,100.00
2023-04-05T07:55:10.437Z,100.00
2023-04-05T07:57:37.612Z,100.00
2023-04-05T08:00:10.455Z,100.00
2023-04-05T08:02:38.357Z,100.00
2023-04-05T08:05:05.938Z,100.00
2023-04-05T08:07:32.678Z,100.00
2023-04-05T08:10:00.387Z,100.00
2023-04-05T08:12:28.265Z,100.00
2023-04-05T08:14:55.011Z,100.00
2023-04-05T08:17:21.838Z,100.00
2023-04-05T08:19:49.509Z,100.00
2023-04-05T08:22:17.917Z,100.00
2023-04-05T08:24:45.064Z,100.00
2023-04-05T08:27:12.138Z,100.00
2023-04-05T08:29:38.896Z,100.00
2023-04-05T08:32:06.226Z,100.00
2023-04-05T08:34:33.007Z,100.00
2023-04-05T08:37:00.452Z,100.00
2023-04-05T08:39:27.270Z,100.00
2023-04-05T08:42:15.930Z,100.00
2023-04-05T08:44:44.949Z,100.00
2023-04-05T08:47:15.374Z,100.00
2023-04-05T08:49:45.664Z,100.00
2023-04-05T08:52:12.406Z,100.00
2023-04-05T08:54:39.242Z,100.00
2023-04-05T08:57:07.840Z,99.92
2023-04-05T08:59:38.422Z,99.87
2023-04-05T09:02:11.477Z,99.83
2023-04-05T09:04:44.609Z,99.52
2023-04-05T09:07:13.785Z,99.37
2023-04-05T09:09:44.362Z,99.26
2023-04-05T09:12:11.435Z,99.05
2023-04-05T09:14:41.864Z,98.89
2023-04-05T09:17:09.728Z,98.51
2023-04-05T09:19:36.466Z,98.24
2023-04-05T09:22:10.837Z,97.93
2023-04-05T09:24:44.960Z,97.72
2023-04-05T09:27:13.285Z,97.45
2023-04-05T09:29:42.427Z,97.03
2023-04-05T09:32:10.807Z,96.92
2023-04-05T09:34:38.882Z,96.83
2023-04-05T09:37:15.856Z,96.63
2023-04-05T09:39:43.372Z,96.75
2023-04-05T09:42:15.859Z,96.73
2023-04-05T09:45:04.890Z,95.80
2023-04-05T09:47:36.750Z,95.51
2023-04-05T09:50:15.736Z,95.25
2023-04-05T09:52:43.470Z,95.17
2023-04-05T09:55:10.985Z,94.75
2023-04-05T09:57:39.523Z,94.63
2023-04-05T10:00:17.021Z,94.67
2023-04-05T10:02:53.960Z,94.50
2023-04-05T10:05:24.388Z,94.50
2023-04-05T10:07:52.366Z,94.28
2023-04-05T10:10:21.181Z,93.98
2023-04-05T10:12:49.629Z,93.93
2023-04-05T10:15:16.905Z,93.43
2023-04-05T10:18:00.813Z,92.88
2023-04-05T10:20:30.841Z,92.42
2023-04-05T10:23:05.966Z,92.06
2023-04-05T10:25:53.681Z,91.95
2023-04-05T10:28:37.489Z,91.58
2023-04-05T10:31:34.145Z,91.18
2023-04-05T10:34:13.675Z,90.75
2023-04-05T10:36:40.403Z,90.69
2023-04-05T10:39:16.924Z,90.38
2023-04-05T10:41:54.165Z,89.90
2023-04-05T10:44:26.487Z,89.45
2023-04-05T10:46:54.827Z,89.46
2023-04-05T10:49:39.446Z,88.79
2023-04-05T10:52:06.880Z,88.18
2023-04-05T10:54:36.740Z,88.02
2023-04-05T10:57:09.334Z,87.96
2023-04-05T10:59:42.139Z,87.62
2023-04-05T11:02:10.187Z,86.20
2023-04-05T11:04:38.872Z,85.33
2023-04-05T11:07:20.304Z,85.00
2023-04-05T11:10:04.694Z,84.80
2023-04-05T11:12:46.582Z,84.10
2023-04-05T11:15:28.730Z,83.34
2023-04-05T11:18:22.479Z,83.06
2023-04-05T11:20:56.241Z,82.64
2023-04-05T11:23:24.996Z,81.60
2023-04-05T11:25:54.768Z,81.59
2023-04-05T11:28:32.131Z,81.55
2023-04-05T11:31:13.064Z,82.02
2023-04-05T11:33:56.789Z,81.41
2023-04-05T11:36:34.159Z,80.76
2023-04-05T11:39:21.578Z,80.86
2023-04-05T11:41:57.049Z,80.48
2023-04-05T11:44:24.984Z,79.96
2023-04-05T11:46:54.176Z,80.35
2023-04-05T11:49:25.144Z,80.54
2023-04-05T11:51:53.779Z,80.20
2023-04-05T11:54:33.582Z,80.65
2023-04-05T11:57:01.451Z,80.23
2023-04-05T11:59:29.925Z,80.05
2023-04-05T12:02:02.179Z,79.83
2023-04-05T12:04:28.976Z,79.80
2023-04-05T12:07:16.611Z,79.95
2023-04-05T12:10:08.441Z,80.05
2023-04-05T12:12:39.641Z,79.83
2023-04-05T12:15:08.795Z,80.14
2023-04-05T12:17:44.208Z,80.31
2023-04-05T12:20:13.443Z,80.26
2023-04-05T12:22:42.115Z,80.41
2023-04-05T12:25:09.466Z,80.54
2023-04-05T12:27:36.348Z,80.38
2023-04-05T12:30:10.152Z,80.15
2023-04-05T12:32:42.666Z,80.31
2023-04-05T12:35:14.331Z,80.39
2023-04-05T12:37:41.465Z,80.50
2023-04-05T12:40:09.220Z,80.64
2023-04-05T12:42:38.988Z,80.62
2023-04-05T12:45:12.573Z,80.72
2023-04-05T12:47:59.426Z,80.98
2023-04-05T12:50:30.405Z,81.16
2023-04-05T12:52:59.431Z,81.29
2023-04-05T12:55:30.465Z,81.17
2023-04-05T12:58:04.144Z,81.01
2023-04-05T13:00:31.533Z,80.81
2023-04-05T13:03:00.357Z,80.67
2023-04-05T13:05:30.924Z,80.75
2023-04-05T13:07:58.853Z,80.59
2023-04-05T13:10:26.162Z,80.37
2023-04-05T13:12:52.980Z,80.04
2023-04-05T13:15:20.158Z,79.92
2023-04-05T13:17:49.907Z,80.17
2023-04-05T13:20:18.432Z,80.38
2023-04-05T13:22:46.261Z,80.49
2023-04-05T13:25:16.591Z,80.59
2023-04-05T13:27:43.602Z,80.53
2023-04-05T13:30:10.672Z,80.48
2023-04-05T13:32:37.452Z,80.18
2023-04-05T13:35:05.733Z,79.96
2023-04-05T13:37:32.653Z,80.00
2023-04-05T13:39:59.385Z,79.84
2023-04-05T13:42:26.182Z,79.78
2023-04-05T13:44:52.905Z,79.56
2023-04-05T13:47:20.170Z,79.64
2023-04-05T13:49:46.856Z,79.50
2023-04-05T13:52:13.589Z,79.48
2023-04-05T13:54:40.239Z,79.51
2023-04-05T13:57:07.046Z,79.66
2023-04-05T13:59:33.728Z,79.59
2023-04-05T14:02:00.649Z,79.74
2023-04-05T14:04:28.682Z,79.70
2023-04-05T14:06:55.403Z,79.70
2023-04-05T14:09:22.022Z,80.05
2023-04-05T14:11:48.721Z,79.84
2023-04-05T14:14:15.589Z,79.96
2023-04-05T14:16:42.446Z,79.64
2023-04-05T14:19:09.150Z,79.76
2023-04-05T14:21:37.293Z,79.66
2023-04-05T14:24:04.074Z,79.73
2023-04-05T14:26:31.039Z,79.58
2023-04-05T14:28:57.882Z,79.52
2023-04-05T14:31:25.582Z,79.50
2023-04-05T14:33:52.544Z,79.18
2023-04-05T14:36:19.322Z,79.24
2023-04-05T14:38:46.134Z,79.29
2023-04-05T14:41:12.980Z,79.38
2023-04-05T14:43:39.760Z,79.40
2023-04-05T14:46:06.970Z,79.45
2023-04-05T14:48:34.184Z,79.86
2023-04-05T14:51:01.023Z,79.87
2023-04-05T14:53:27.793Z,79.91
2023-04-05T14:55:54.404Z,79.84
2023-04-05T14:58:21.196Z,79.85
2023-04-05T15:00:49.867Z,79.86
2023-04-05T15:03:19.887Z,80.06
2023-04-05T15:05:48.589Z,80.18
2023-04-05T15:08:15.633Z,80.32
2023-04-05T15:10:43.237Z,80.29
2023-04-05T15:13:10.690Z,80.68
2023-04-05T15:15:37.719Z,80.97
2023-04-05T15:18:05.311Z,81.12
2023-04-05T15:20:32.784Z,82.14
2023-04-05T15:22:59.576Z,82.80
2023-04-05T15:25:26.239Z,83.22
2023-04-05T15:27:54.820Z,84.14
2023-04-05T15:30:22.120Z,84.68
2023-04-05T15:32:48.862Z,85.13
2023-04-05T15:35:15.644Z,85.62
2023-04-05T15:37:42.709Z,85.77
2023-04-05T15:40:09.901Z,85.91
2023-04-05T15:42:36.639Z,85.95
2023-04-05T15:45:03.798Z,86.21
2023-04-05T15:47:30.566Z,86.55
2023-04-05T15:49:57.304Z,86.91
2023-04-05T15:52:24.042Z,86.66
2023-04-05T15:54:50.667Z,86.75
2023-04-05T15:57:17.447Z,87.19
2023-04-05T15:59:44.548Z,87.29
2023-04-05T16:02:11.522Z,87.43
2023-04-05T16:04:39.373Z,87.48
2023-04-05T16:07:07.834Z,87.63
2023-04-05T16:09:34.559Z,87.73
2023-04-05T16:12:01.673Z,87.82
2023-04-05T16:14:28.473Z,88.00
2023-04-05T16:16:55.376Z,88.20
2023-04-05T16:19:22.628Z,88.17
2023-04-05T16:21:49.628Z,88.41
2023-04-05T16:24:16.807Z,88.48
2023-04-05T16:26:43.523Z,88.48
2023-04-05T16:29:10.209Z,88.29
2023-04-05T16:31:37.918Z,88.50
2023-04-05T16:34:04.629Z,88.61
2023-04-05T16:36:31.639Z,88.68
2023-04-05T16:38:58.346Z,88.69
2023-04-05T16:41:25.242Z,88.77
2023-04-05T16:43:52.019Z,88.82
2023-04-05T16:46:18.737Z,88.46
2023-04-05T16:48:45.643Z,88.51
2023-04-05T16:51:13.148Z,88.14
2023-04-05T16:53:39.933Z,88.19
2023-04-05T16:56:06.684Z,87.81
2023-04-05T16:58:33.389Z,87.65
2023-04-05T17:01:00.686Z,87.55
2023-04-05T17:03:27.819Z,87.12
2023-04-05T17:05:54.715Z,86.85
2023-04-05T17:08:21.456Z,86.90
2023-04-05T17:10:48.218Z,86.87
2023-04-05T17:13:15.096Z,86.85
2023-04-05T17:15:42.057Z,86.54
2023-04-05T17:18:08.868Z,86.46
2023-04-05T17:20:36.034Z,86.26
2023-04-05T17:23:02.864Z,86.06
2023-04-05T17:25:31.285Z,85.72
2023-04-05T17:27:58.006Z,85.65
2023-04-05T17:30:26.325Z,85.37
2023-04-05T17:32:53.459Z,85.28
2023-04-05T17:35:20.655Z,85.04
2023-04-05T17:37:48.046Z,84.71
2023-04-05T17:40:16.172Z,84.75
2023-04-05T17:42:42.832Z,84.40
2023-04-05T17:45:10.089Z,84.28
2023-04-05T17:47:37.245Z,84.06
2023-04-05T17:50:04.264Z,83.61
2023-04-05T17:52:31.428Z,83.33
2023-04-05T17:54:58.139Z,83.16
2023-04-05T17:57:24.817Z,83.30
2023-04-05T17:59:51.477Z,83.22
2023-04-05T18:02:18.297Z,83.17
2023-04-05T18:04:45.226Z,83.24
2023-04-05T18:07:12.783Z,83.09
2023-04-05T18:09:42.082Z,83.21
2023-04-05T18:12:09.629Z,83.15
2023-04-05T18:14:37.091Z,83.30
2023-04-05T18:17:07.512Z,83.52
2023-04-05T18:19:34.722Z,83.61
2023-04-05T18:22:01.560Z,83.66
2023-04-05T18:24:29.696Z,83.73
2023-04-05T18:26:56.450Z,83.91
2023-04-05T18:29:28.194Z,83.98
2023-04-05T18:31:55.888Z,84.29
2023-04-05T18:34:22.718Z,84.37
2023-04-05T18:36:49.658Z,84.52
2023-04-05T18:39:16.836Z,84.84
2023-04-05T18:41:43.554Z,84.85
2023-04-05T18:44:10.395Z,84.93
2023-04-05T18:46:37.125Z,85.00
2023-04-05T18:49:03.967Z,85.36
2023-04-05T18:51:31.171Z,85.44
2023-04-05T18:53:58.680Z,85.66
2023-04-05T18:56:30.015Z,85.71
2023-04-05T18:58:56.884Z,85.96
2023-04-05T19:01:24.031Z,86.05
2023-04-05T19:03:51.042Z,86.33
2023-04-05T19:06:17.945Z,86.33
2023-04-05T19:08:45.068Z,86.58
2023-04-05T19:11:13.755Z,86.67
2023-04-05T19:13:42.182Z,86.86
2023-04-05T19:16:10.092Z,86.89
2023-04-05T19:18:36.833Z,87.00
2023-04-05T19:21:03.679Z,87.35
2023-04-05T19:23:30.396Z,87.27
2023-04-05T19:25:58.240Z,87.33
2023-04-05T19:28:26.341Z,86.96
2023-04-05T19:30:54.123Z,87.17
2023-04-05T19:33:21.890Z,87.19
2023-04-05T19:35:49.164Z,87.47
2023-04-05T19:38:16.031Z,87.42
2023-04-05T19:40:42.909Z,87.45
2023-04-05T19:43:10.171Z,87.49
2023-04-05T19:45:37.171Z,87.71
2023-04-05T19:48:27.787Z,87.61
2023-04-05T19:50:57.654Z,87.42
2023-04-05T19:53:41.831Z,87.55
2023-04-05T19:56:32.458Z,87.60
2023-04-05T19:59:01.455Z,87.49
2023-04-05T20:01:30.038Z,87.39
2023-04-05T20:03:57.840Z,87.49
2023-04-05T20:06:25.812Z,87.36
2023-04-05T20:09:01.919Z,87.26
2023-04-05T20:11:28.908Z,87.31
2023-04-05T20:13:57.258Z,87.17
2023-04-05T20:16:27.899Z,87.24
2023-04-05T20:19:07.833Z,87.20
2023-04-05T20:21:36.537Z,86.99
2023-04-05T20:24:04.722Z,86.96
2023-04-05T20:26:32.822Z,86.57
2023-04-05T20:29:07.420Z,86.55
2023-04-05T20:31:35.936Z,86.41
2023-04-05T20:34:15.230Z,86.42
2023-04-05T20:36:50.663Z,86.29
2023-04-05T20:39:17.634Z,86.35
2023-04-05T20:41:46.696Z,86.22
2023-04-05T20:44:13.488Z,86.19
2023-04-05T20:46:40.972Z,86.17
2023-04-05T20:49:08.214Z,86.20
2023-04-05T20:51:35.267Z,86.21
2023-04-05T20:54:02.285Z,86.37
2023-04-05T20:56:29.048Z,86.45
2023-04-05T20:58:56.124Z,86.50
2023-04-05T21:01:23.074Z,86.63
2023-04-05T21:03:50.011Z,86.40
2023-04-05T21:06:16.794Z,86.55
2023-04-05T21:08:44.388Z,86.63
2023-04-05T21:11:12.000Z,86.50
2023-04-05T21:13:41.381Z,86.67
2023-04-05T21:16:08.333Z,86.67
2023-04-05T21:18:36.077Z,86.83
2023-04-05T21:21:02.879Z,86.60
2023-04-05T21:23:29.828Z,86.86
2023-04-05T21:25:58.331Z,86.85
2023-04-05T21:28:25.731Z,86.87
2023-04-05T21:30:52.840Z,87.05
2023-04-05T21:33:19.818Z,86.84
2023-04-05T21:35:46.696Z,87.11
2023-04-05T21:38:15.606Z,87.06
2023-04-05T21:40:44.730Z,87.01
2023-04-05T21:43:12.847Z,86.77
2023-04-05T21:45:39.632Z,86.80
2023-04-05T21:48:06.454Z,87.03
2023-04-05T21:50:33.293Z,87.09
2023-04-05T21:52:59.945Z,86.81
2023-04-05T21:55:26.682Z,87.18
2023-04-05T21:57:53.418Z,87.11
2023-04-05T22:00:20.345Z,87.53
2023-04-05T22:02:47.213Z,87.03
2023-04-05T22:05:29.682Z,87.26
2023-04-05T22:08:03.919Z,87.30
2023-04-05T22:10:30.760Z,87.30
2023-04-05T22:12:57.452Z,87.24
2023-04-05T22:15:24.221Z,87.04
2023-04-05T22:17:50.971Z,87.31
2023-04-05T22:20:17.733Z,87.28
2023-04-05T22:22:44.484Z,87.40
2023-04-05T22:25:12.069Z,87.52
2023-04-05T22:27:38.827Z,87.42
2023-04-05T22:30:08.053Z,87.28
2023-04-05T22:32:35.262Z,87.29
2023-04-05T22:35:01.934Z,87.48
2023-04-05T22:37:35.314Z,87.86
2023-04-05T22:40:02.683Z,87.81
2023-04-05T22:42:29.386Z,87.98
2023-04-05T22:44:56.090Z,87.83
2023-04-05T22:47:22.837Z,87.90
2023-04-05T22:49:49.926Z,87.83
2023-04-05T22:52:16.710Z,87.76
2023-04-05T22:54:43.385Z,87.83
2023-04-05T22:57:11.413Z,87.68
2023-04-05T22:59:38.780Z,87.82
2023-04-05T23:02:05.593Z,87.77
2023-04-05T23:04:32.385Z,87.82
2023-04-05T23:06:59.058Z,87.69
2023-04-05T23:09:25.801Z,87.60
2023-04-05T23:11:52.574Z,87.61
2023-04-05T23:14:19.191Z,87.47
2023-04-05T23:16:45.994Z,87.53
2023-04-05T23:19:12.787Z,87.45
2023-04-05T23:21:39.504Z,87.41
2023-04-05T23:24:06.569Z,87.32
2023-04-05T23:26:34.407Z,87.20
2023-04-05T23:29:01.137Z,87.10
2023-04-05T23:31:27.918Z,86.94
2023-04-05T23:33:54.842Z,86.70
2023-04-05T23:36:22.141Z,86.61
2023-04-05T23:38:48.801Z,86.31
2023-04-05T23:41:15.501Z,86.38
2023-04-05T23:43:42.112Z,86.02
2023-04-05T23:46:08.781Z,86.00
2023-04-05T23:48:35.495Z,85.63
2023-04-05T23:51:02.163Z,85.59
2023-04-05T23:53:28.885Z,85.44
2023-04-05T23:55:56.927Z,85.33
2023-04-05T23:58:23.878Z,85.34
